createdAt,value
2018-08-31T00:00:10.254Z,1.90
2018-08-31T00:02:47.989Z,1.67
2018-08-31T00:05:43.916Z,2.10
2018-08-31T00:09:53.949Z,2.10
2018-08-31T00:12:33.934Z,2.60
2018-08-31T00:15:02.469Z,2.40
2018-08-31T00:17:30.918Z,2.00
2018-08-31T00:20:00.140Z,2.30
2018-08-31T00:22:28.727Z,2.77
2018-08-31T00:25:10.347Z,2.87
2018-08-31T00:27:50.143Z,3.37
2018-08-31T00:30:29.869Z,2.43
2018-08-31T00:33:10.993Z,2.80
2018-08-31T00:37:56.436Z,2.33
2018-08-31T00:40:41.810Z,2.20
2018-08-31T00:43:21.495Z,3.33
2018-08-31T00:45:49.961Z,3.67
2018-08-31T00:48:18.524Z,3.20
2018-08-31T00:50:47.144Z,2.97
2018-08-31T00:53:15.615Z,2.80
2018-08-31T00:55:44.250Z,2.60
2018-08-31T00:58:13.115Z,2.70
2018-08-31T01:00:42.170Z,1.83
2018-08-31T01:03:10.664Z,2.20
2018-08-31T01:05:39.389Z,2.13
2018-08-31T01:08:07.854Z,2.23
2018-08-31T01:10:36.339Z,1.70
2018-08-31T01:13:04.832Z,1.70
2018-08-31T01:15:33.376Z,2.00
2018-08-31T01:18:03.534Z,1.60
2018-08-31T01:20:32.042Z,2.40
2018-08-31T01:23:00.572Z,2.27
2018-08-31T01:25:29.100Z,2.13
2018-08-31T01:27:57.558Z,2.10
2018-08-31T01:30:26.090Z,2.27
2018-08-31T01:32:54.718Z,1.70
2018-08-31T01:35:23.273Z,1.63
2018-08-31T01:37:51.884Z,1.97
2018-08-31T01:40:20.913Z,2.10
2018-08-31T01:42:49.416Z,2.47
2018-08-31T01:45:17.858Z,2.03
2018-08-31T01:47:46.476Z,2.43
2018-08-31T01:50:14.984Z,2.13
2018-08-31T01:52:43.534Z,2.10
2018-08-31T01:55:12.066Z,2.40
2018-08-31T01:57:40.637Z,2.00
2018-08-31T02:00:11.054Z,2.30
2018-08-31T02:02:40.054Z,2.60
2018-08-31T02:05:08.610Z,2.77
2018-08-31T02:07:37.081Z,2.70
2018-08-31T02:10:06.061Z,3.03
2018-08-31T02:12:34.527Z,2.87
2018-08-31T02:15:03.019Z,2.80
2018-08-31T02:17:31.560Z,2.93
2018-08-31T02:20:00.970Z,2.67
2018-08-31T02:22:29.451Z,2.73
2018-08-31T02:24:58.012Z,3.97
2018-08-31T02:27:26.604Z,2.60
2018-08-31T02:29:55.138Z,2.73
2018-08-31T02:32:23.647Z,2.17
2018-08-31T02:34:52.171Z,2.93
2018-08-31T02:37:20.698Z,2.37
2018-08-31T02:39:49.280Z,2.37
2018-08-31T02:42:18.328Z,2.00
2018-08-31T02:44:46.914Z,2.20
2018-08-31T02:47:15.385Z,2.00
2018-08-31T02:49:43.929Z,1.90
2018-08-31T02:52:13.572Z,2.00
2018-08-31T02:54:42.071Z,1.87
2018-08-31T02:57:10.633Z,1.80
2018-08-31T02:59:39.119Z,1.60
2018-08-31T03:02:07.620Z,2.40
2018-08-31T03:04:36.062Z,1.97
2018-08-31T03:07:04.561Z,2.30
2018-08-31T03:09:33.168Z,1.63
2018-08-31T03:12:02.148Z,2.13
2018-08-31T03:14:30.651Z,2.20
2018-08-31T03:16:59.229Z,1.97
2018-08-31T03:19:27.688Z,2.63
2018-08-31T03:21:56.341Z,2.10
2018-08-31T03:24:24.883Z,2.20
2018-08-31T03:26:53.467Z,2.07
2018-08-31T03:29:22.070Z,2.20
2018-08-31T03:31:50.619Z,2.70
2018-08-31T03:34:19.134Z,2.50
2018-08-31T03:36:47.846Z,2.23
2018-08-31T03:39:17.129Z,2.20
2018-08-31T03:41:45.660Z,2.57
2018-08-31T03:44:14.136Z,2.53
2018-08-31T03:46:42.750Z,2.37
2018-08-31T03:49:11.237Z,2.60
2018-08-31T03:51:39.692Z,2.30
2018-08-31T03:54:08.160Z,2.50
2018-08-31T03:56:36.716Z,2.40
2018-08-31T03:59:05.301Z,2.60
2018-08-31T04:01:33.778Z,2.07
2018-08-31T04:04:02.208Z,2.60
2018-08-31T04:06:30.693Z,2.70
2018-08-31T04:08:59.158Z,2.27
2018-08-31T04:11:28.260Z,2.50
2018-08-31T04:13:56.734Z,2.70
2018-08-31T04:16:25.216Z,2.60
2018-08-31T04:18:53.753Z,2.30
2018-08-31T04:21:22.997Z,2.50
2018-08-31T04:23:51.460Z,2.37
2018-08-31T04:26:19.913Z,2.67
2018-08-31T04:28:48.399Z,2.20
2018-08-31T04:31:17.001Z,2.10
2018-08-31T04:33:45.479Z,2.70
2018-08-31T04:36:14.187Z,3.10
2018-08-31T04:38:42.709Z,2.60
2018-08-31T04:41:11.306Z,2.63
2018-08-31T04:43:39.818Z,2.60
2018-08-31T04:46:08.435Z,2.70
2018-08-31T04:48:36.961Z,2.40
2018-08-31T04:51:05.453Z,2.80
2018-08-31T04:53:33.942Z,2.97
2018-08-31T04:56:02.408Z,2.43
2018-08-31T04:58:30.887Z,3.10
2018-08-31T05:00:59.826Z,3.03
2018-08-31T05:03:28.423Z,3.07
2018-08-31T05:05:56.903Z,2.80
2018-08-31T05:08:25.409Z,2.90
2018-08-31T05:10:53.928Z,3.20
2018-08-31T05:13:23.160Z,2.90
2018-08-31T05:15:51.680Z,2.97
2018-08-31T05:18:20.172Z,3.33
2018-08-31T05:20:48.714Z,3.83
2018-08-31T05:23:17.258Z,3.53
2018-08-31T05:25:45.780Z,3.77
2018-08-31T05:28:15.343Z,3.40
2018-08-31T05:30:44.409Z,3.53
2018-08-31T05:33:13.346Z,3.40
2018-08-31T05:35:41.805Z,3.23
2018-08-31T05:38:10.294Z,3.50
2018-08-31T05:40:38.847Z,3.47
2018-08-31T05:43:07.942Z,3.50
2018-08-31T05:45:36.819Z,3.40
2018-08-31T05:48:05.298Z,3.23
2018-08-31T05:50:33.806Z,3.57
2018-08-31T05:53:02.423Z,3.27
2018-08-31T05:55:30.990Z,3.00
2018-08-31T05:58:00.234Z,3.23
2018-08-31T06:00:29.042Z,3.40
2018-08-31T06:02:57.646Z,2.90
2018-08-31T06:05:26.553Z,3.30
2018-08-31T06:07:55.078Z,3.20
2018-08-31T06:10:23.608Z,3.17
2018-08-31T06:12:52.196Z,4.00
2018-08-31T06:15:20.846Z,3.80
2018-08-31T06:17:49.346Z,3.50
2018-08-31T06:20:18.698Z,4.03
2018-08-31T06:22:47.222Z,3.77
2018-08-31T06:25:15.813Z,3.17
2018-08-31T06:27:44.461Z,3.10
2018-08-31T06:30:13.178Z,3.03
2018-08-31T06:32:41.742Z,2.60
2018-08-31T06:35:10.473Z,3.00
2018-08-31T06:37:39.042Z,3.10
2018-08-31T06:40:08.436Z,2.60
2018-08-31T06:42:36.966Z,3.27
2018-08-31T06:45:05.629Z,3.17
2018-08-31T06:47:34.566Z,3.50
2018-08-31T06:50:03.268Z,2.63
2018-08-31T06:52:32.804Z,2.83
2018-08-31T06:55:01.349Z,2.50
2018-08-31T06:57:29.968Z,2.67
2018-08-31T06:59:58.818Z,3.10
2018-08-31T07:02:27.325Z,3.00
2018-08-31T07:04:55.985Z,2.80
2018-08-31T07:07:24.561Z,1.60
2018-08-31T07:09:53.246Z,1.77
2018-08-31T07:12:21.818Z,2.10
2018-08-31T07:14:50.460Z,1.67
2018-08-31T07:17:18.999Z,2.30
2018-08-31T07:19:47.566Z,2.03
2018-08-31T07:22:17.285Z,2.03
2018-08-31T07:24:45.821Z,2.53
2018-08-31T07:27:14.348Z,2.73
2018-08-31T07:29:42.943Z,1.60
2018-08-31T07:32:11.653Z,1.50
2018-08-31T07:34:40.839Z,1.57
2018-08-31T07:37:09.580Z,1.40
2018-08-31T07:39:38.175Z,1.33
2018-08-31T07:42:06.751Z,1.57
2018-08-31T07:44:35.233Z,1.30
2018-08-31T07:47:04.165Z,1.30
2018-08-31T07:49:32.794Z,1.00
2018-08-31T07:52:01.346Z,1.37
2018-08-31T07:54:30.131Z,1.30
2018-08-31T07:56:58.774Z,1.50
2018-08-31T07:59:27.294Z,1.40
2018-08-31T08:01:55.849Z,1.40
2018-08-31T08:04:24.392Z,1.53
2018-08-31T08:06:53.189Z,1.50
2018-08-31T08:09:21.690Z,1.50
2018-08-31T08:11:50.287Z,1.23
2018-08-31T08:14:18.791Z,1.47
2018-08-31T08:16:47.309Z,1.33
2018-08-31T08:19:15.843Z,1.50
2018-08-31T08:21:44.563Z,1.60
2018-08-31T08:24:13.104Z,1.50
2018-08-31T08:26:41.672Z,1.70
2018-08-31T08:29:10.207Z,1.40
2018-08-31T08:31:38.736Z,1.30
2018-08-31T08:34:07.294Z,1.67
2018-08-31T08:36:35.761Z,1.43
2018-08-31T08:39:05.878Z,1.67
2018-08-31T08:41:34.368Z,1.40
2018-08-31T08:44:02.879Z,1.30
2018-08-31T08:46:31.371Z,1.60
2018-08-31T08:49:00.494Z,1.43
2018-08-31T08:51:28.945Z,1.40
2018-08-31T08:53:57.461Z,1.20
2018-08-31T08:56:26.072Z,1.53
2018-08-31T08:58:54.718Z,1.60
2018-08-31T09:01:23.240Z,1.30
2018-08-31T09:03:51.743Z,1.63
2018-08-31T09:06:20.339Z,1.93
2018-08-31T09:08:48.839Z,1.50
2018-08-31T09:11:17.437Z,1.13
2018-08-31T09:13:46.001Z,1.23
2018-08-31T09:16:14.560Z,1.17
2018-08-31T09:18:42.999Z,1.23
2018-08-31T09:21:11.444Z,1.23
2018-08-31T09:23:39.940Z,1.30
2018-08-31T09:26:11.375Z,1.50
2018-08-31T09:28:40.009Z,1.27
2018-08-31T09:31:13.837Z,1.60
2018-08-31T09:33:42.463Z,1.40
2018-08-31T09:36:11.651Z,1.50
2018-08-31T09:38:40.238Z,1.50
2018-08-31T09:41:08.780Z,1.47
2018-08-31T09:43:37.338Z,1.60
2018-08-31T09:46:06.157Z,1.50
2018-08-31T09:48:34.649Z,1.60
2018-08-31T09:51:03.243Z,1.43
2018-08-31T09:53:31.720Z,1.67
2018-08-31T09:56:00.267Z,1.93
2018-08-31T09:58:28.827Z,1.87
2018-08-31T10:01:02.685Z,1.10
2018-08-31T10:03:31.287Z,1.33
2018-08-31T10:05:59.865Z,1.50
2018-08-31T10:08:28.901Z,1.37
2018-08-31T10:10:57.562Z,1.20
2018-08-31T10:13:26.467Z,1.37
2018-08-31T10:15:54.927Z,0.93
2018-08-31T10:18:23.539Z,1.30
2018-08-31T10:20:52.185Z,1.40
2018-08-31T10:23:21.328Z,1.43
2018-08-31T10:25:49.880Z,1.40
2018-08-31T10:28:18.454Z,1.47
2018-08-31T10:30:46.970Z,1.30
2018-08-31T10:33:15.521Z,1.57
2018-08-31T10:35:44.126Z,1.50
2018-08-31T10:38:12.759Z,1.30
2018-08-31T10:40:41.263Z,1.10
2018-08-31T10:43:09.966Z,1.43
2018-08-31T10:45:38.565Z,1.83
2018-08-31T10:48:07.222Z,1.57
2018-08-31T10:50:36.002Z,1.77
2018-08-31T10:53:04.529Z,1.70
2018-08-31T10:55:33.104Z,1.63
2018-08-31T10:58:01.637Z,1.60
2018-08-31T11:00:30.244Z,1.57
2018-08-31T11:02:58.800Z,1.53
2018-08-31T11:05:27.409Z,1.70
2018-08-31T11:07:55.896Z,1.40
2018-08-31T11:10:24.458Z,1.60
2018-08-31T11:12:53.085Z,1.40
2018-08-31T11:15:21.729Z,1.40
2018-08-31T11:17:50.263Z,1.37
2018-08-31T11:20:18.865Z,1.37
2018-08-31T11:22:47.367Z,1.43
2018-08-31T11:25:15.899Z,1.60
2018-08-31T11:27:44.500Z,1.30
2018-08-31T11:30:12.954Z,1.73
2018-08-31T11:32:42.731Z,1.70
2018-08-31T11:35:11.971Z,1.30
2018-08-31T11:37:40.684Z,1.20
2018-08-31T11:40:12.267Z,1.50
2018-08-31T11:42:40.807Z,1.37
2018-08-31T11:45:09.314Z,1.70
2018-08-31T11:47:37.970Z,1.30
2018-08-31T11:50:06.488Z,1.30
2018-08-31T11:52:35.027Z,1.60
2018-08-31T11:55:03.600Z,1.40
2018-08-31T11:57:32.146Z,1.10
2018-08-31T12:00:01.545Z,1.40
2018-08-31T12:02:30.315Z,1.40
2018-08-31T12:04:58.924Z,1.30
2018-08-31T12:07:30.452Z,1.43
2018-08-31T12:09:59.194Z,1.50
2018-08-31T12:12:27.813Z,1.50
2018-08-31T12:14:56.330Z,1.40
2018-08-31T12:17:24.913Z,1.47
2018-08-31T12:19:53.365Z,1.50
2018-08-31T12:22:22.912Z,1.30
2018-08-31T12:24:51.418Z,1.50
2018-08-31T12:27:20.006Z,1.20
2018-08-31T12:29:48.603Z,1.37
2018-08-31T12:32:17.131Z,1.50
2018-08-31T12:34:45.615Z,1.33
2018-08-31T12:37:15.574Z,1.90
2018-08-31T12:39:44.136Z,1.47
2018-08-31T12:42:12.662Z,1.10
2018-08-31T12:44:41.265Z,1.20
2018-08-31T12:47:09.861Z,1.20
2018-08-31T12:49:38.487Z,1.77
2018-08-31T12:52:07.673Z,1.53
2018-08-31T12:54:36.198Z,1.40
2018-08-31T12:57:04.847Z,1.43
2018-08-31T12:59:33.556Z,1.60
2018-08-31T13:02:03.418Z,1.27
2018-08-31T13:04:31.963Z,1.33
2018-08-31T13:07:00.684Z,1.60
2018-08-31T13:09:29.177Z,1.50
2018-08-31T13:11:57.761Z,1.60
2018-08-31T13:14:26.351Z,1.30
2018-08-31T13:16:54.888Z,1.67
2018-08-31T13:19:23.529Z,1.40
2018-08-31T13:21:56.691Z,1.40
2018-08-31T13:24:25.212Z,1.43
2018-08-31T13:26:53.779Z,1.60
2018-08-31T13:29:22.387Z,1.63
2018-08-31T13:31:50.936Z,1.30
2018-08-31T13:34:19.538Z,1.50
2018-08-31T13:36:48.128Z,1.27
2018-08-31T13:39:17.304Z,1.37
2018-08-31T13:41:45.959Z,1.50
2018-08-31T13:44:14.984Z,1.67
2018-08-31T13:46:44.229Z,1.67
2018-08-31T13:49:12.879Z,1.77
2018-08-31T13:51:41.490Z,1.40
2018-08-31T13:54:09.981Z,1.67
2018-08-31T13:56:38.550Z,1.50
2018-08-31T13:59:07.203Z,1.60
2018-08-31T14:01:35.807Z,1.57
2018-08-31T14:04:04.285Z,1.47
2018-08-31T14:06:32.780Z,1.63
2018-08-31T14:09:01.381Z,1.47
2018-08-31T14:11:29.865Z,1.50
2018-08-31T14:13:58.410Z,1.00
2018-08-31T14:16:26.956Z,1.77
2018-08-31T14:18:55.432Z,1.40
2018-08-31T14:21:23.972Z,1.50
2018-08-31T14:23:52.463Z,1.40
2018-08-31T14:26:20.946Z,1.57
2018-08-31T14:28:49.450Z,1.07
2018-08-31T14:31:17.948Z,1.50
2018-08-31T14:33:46.520Z,1.40
2018-08-31T14:36:14.993Z,1.50
2018-08-31T14:38:43.502Z,1.57
2018-08-31T14:41:11.963Z,1.63
2018-08-31T14:43:41.558Z,1.70
2018-08-31T14:46:10.168Z,1.40
2018-08-31T14:48:44.418Z,1.50
2018-08-31T14:51:13.007Z,1.43
2018-08-31T14:53:41.579Z,1.47
2018-08-31T14:56:10.540Z,1.30
2018-08-31T14:58:39.174Z,1.53
2018-08-31T15:01:08.519Z,1.27
2018-08-31T15:03:41.481Z,1.53
2018-08-31T15:06:10.162Z,1.10
2018-08-31T15:08:38.782Z,1.37
2018-08-31T15:11:07.337Z,1.40
2018-08-31T15:13:35.922Z,1.50
2018-08-31T15:16:04.482Z,1.40
2018-08-31T15:18:33.414Z,1.57
2018-08-31T15:21:02.035Z,1.50
2018-08-31T15:23:33.044Z,1.73
2018-08-31T15:26:02.208Z,1.20
2018-08-31T15:28:30.954Z,1.23
2018-08-31T15:30:59.633Z,1.30
2018-08-31T15:33:28.245Z,1.23
2018-08-31T15:35:57.629Z,1.70
2018-08-31T15:38:26.488Z,1.70
2018-08-31T15:40:55.165Z,1.10
2018-08-31T15:43:24.809Z,1.60
2018-08-31T15:45:53.580Z,1.20
2018-08-31T15:48:22.306Z,1.20
2018-08-31T15:50:50.926Z,1.10
2018-08-31T15:53:19.440Z,1.37
2018-08-31T15:55:47.929Z,1.17
2018-08-31T15:58:16.491Z,1.33
2018-08-31T16:00:45.177Z,1.23
2018-08-31T16:03:13.854Z,1.23
2018-08-31T16:05:42.452Z,1.20
2018-08-31T16:08:11.093Z,1.13
2018-08-31T16:10:39.763Z,1.07
2018-08-31T16:13:09.038Z,1.07
2018-08-31T16:15:37.589Z,1.10
2018-08-31T16:18:06.166Z,1.07
2018-08-31T16:20:34.784Z,1.30
2018-08-31T16:23:03.401Z,1.07
2018-08-31T16:25:32.884Z,1.40
2018-08-31T16:28:01.530Z,1.20
2018-08-31T16:30:30.109Z,1.40
2018-08-31T16:32:58.743Z,1.17
2018-08-31T16:35:27.324Z,1.60
2018-08-31T16:37:56.434Z,1.03
2018-08-31T16:40:25.086Z,1.00
2018-08-31T16:42:53.715Z,1.27
2018-08-31T16:45:22.490Z,1.00
2018-08-31T16:47:51.419Z,1.30
2018-08-31T16:50:25.585Z,0.93
2018-08-31T16:52:57.742Z,1.60
2018-08-31T16:55:32.236Z,1.20
2018-08-31T16:58:01.004Z,1.50
2018-08-31T17:00:33.833Z,1.13
2018-08-31T17:03:02.830Z,1.20
2018-08-31T17:05:36.992Z,1.53
2018-08-31T17:08:05.677Z,1.47
2018-08-31T17:10:35.673Z,1.40
2018-08-31T17:13:05.127Z,1.20
2018-08-31T17:15:40.444Z,1.17
2018-08-31T17:18:09.072Z,1.67
2018-08-31T17:20:37.850Z,1.20
2018-08-31T17:23:07.362Z,1.67
2018-08-31T17:25:36.008Z,1.10
2018-08-31T17:28:09.847Z,1.30
2018-08-31T17:30:38.756Z,1.57
2018-08-31T17:33:12.782Z,1.63
2018-08-31T17:35:46.937Z,1.23
2018-08-31T17:38:17.174Z,1.23
2018-08-31T17:40:45.990Z,1.63
2018-08-31T17:43:15.348Z,1.50
2018-08-31T17:45:44.101Z,1.37
2018-08-31T17:48:12.700Z,1.40
2018-08-31T17:50:41.483Z,1.57
2018-08-31T17:53:14.698Z,1.50
2018-08-31T17:55:43.235Z,1.20
2018-08-31T17:58:11.812Z,1.50
2018-08-31T18:00:40.428Z,1.57
2018-08-31T18:03:08.980Z,1.97
2018-08-31T18:05:37.557Z,1.37
2018-08-31T18:08:06.141Z,1.53
2018-08-31T18:10:34.846Z,1.63
2018-08-31T18:13:03.500Z,1.53
2018-08-31T18:15:33.094Z,1.37
2018-08-31T18:18:01.716Z,1.60
2018-08-31T18:20:30.590Z,1.40
2018-08-31T18:22:59.189Z,1.40
2018-08-31T18:25:28.581Z,1.20
2018-08-31T18:27:57.131Z,1.40
2018-08-31T18:30:25.693Z,1.37
2018-08-31T18:32:54.295Z,1.40
2018-08-31T18:35:22.829Z,1.33
2018-08-31T18:37:54.408Z,1.67
2018-08-31T18:40:23.099Z,1.80
2018-08-31T18:42:51.912Z,1.90
2018-08-31T18:45:20.557Z,1.67
2018-08-31T18:47:49.156Z,1.73
2018-08-31T18:50:18.729Z,1.50
2018-08-31T18:52:47.340Z,1.43
2018-08-31T18:55:16.266Z,1.47
2018-08-31T18:57:44.755Z,1.80
2018-08-31T19:00:13.284Z,1.57
2018-08-31T19:02:41.826Z,1.63
2018-08-31T19:05:10.525Z,1.63
2018-08-31T19:07:39.309Z,1.40
2018-08-31T19:10:07.993Z,1.50
2018-08-31T19:12:36.509Z,1.60
2018-08-31T19:15:05.051Z,1.53
2018-08-31T19:17:33.760Z,1.83
2018-08-31T19:20:02.402Z,1.60
2018-08-31T19:22:30.978Z,1.57
2018-08-31T19:24:59.734Z,1.90
2018-08-31T19:27:28.498Z,1.73
2018-08-31T19:29:57.124Z,1.97
2018-08-31T19:32:25.644Z,1.33
2018-08-31T19:34:54.207Z,2.13
2018-08-31T19:37:23.132Z,2.33
2018-08-31T19:39:51.703Z,2.67
2018-08-31T19:42:20.269Z,2.40
2018-08-31T19:44:48.935Z,2.10
2018-08-31T19:47:17.955Z,2.23
2018-08-31T19:49:46.487Z,2.10
2018-08-31T19:52:15.825Z,2.00
2018-08-31T19:54:44.393Z,1.73
2018-08-31T19:57:13.085Z,1.83
2018-08-31T19:59:41.783Z,2.03
2018-08-31T20:02:10.392Z,2.37
2018-08-31T20:04:39.090Z,2.00
2018-08-31T20:07:07.903Z,2.90
2018-08-31T20:09:36.813Z,3.17
2018-08-31T20:12:06.641Z,2.47
2018-08-31T20:14:35.226Z,2.33
2018-08-31T20:17:03.795Z,2.40
2018-08-31T20:19:33.114Z,2.10
2018-08-31T20:22:02.419Z,2.90
2018-08-31T20:24:31.214Z,2.30
2018-08-31T20:26:59.868Z,2.33
2018-08-31T20:29:28.635Z,2.53
2018-08-31T20:31:57.393Z,2.47
2018-08-31T20:34:25.966Z,2.67
2018-08-31T20:36:54.665Z,2.20
2018-08-31T20:39:23.471Z,2.33
2018-08-31T20:41:52.254Z,2.67
2018-08-31T20:44:20.927Z,2.20
2018-08-31T20:46:49.608Z,2.60
2018-08-31T20:49:18.306Z,2.20
2018-08-31T20:51:47.009Z,2.73
2018-08-31T20:54:15.587Z,2.67
2018-08-31T20:56:44.174Z,2.43
2018-08-31T20:59:12.733Z,2.87
2018-08-31T21:01:41.445Z,2.53
2018-08-31T21:04:10.030Z,2.73
2018-08-31T21:06:38.514Z,2.57
2018-08-31T21:09:08.277Z,2.90
2018-08-31T21:11:36.842Z,3.20
2018-08-31T21:14:05.415Z,2.80
2018-08-31T21:16:33.966Z,2.87
2018-08-31T21:19:02.499Z,2.53
2018-08-31T21:21:31.327Z,3.07
2018-08-31T21:23:59.914Z,2.87
2018-08-31T21:26:28.410Z,3.60
2018-08-31T21:28:56.881Z,3.07
2018-08-31T21:31:25.460Z,3.13
2018-08-31T21:33:53.919Z,2.97
2018-08-31T21:36:22.415Z,2.93
2018-08-31T21:38:50.864Z,2.50
2018-08-31T21:41:19.360Z,2.63
2018-08-31T21:43:48.026Z,2.60
2018-08-31T21:46:16.456Z,2.83
2018-08-31T21:48:44.962Z,3.20
2018-08-31T21:51:13.584Z,2.80
2018-08-31T21:53:43.032Z,3.63
2018-08-31T21:56:11.563Z,2.50
2018-08-31T21:58:40.308Z,3.67
2018-08-31T22:01:14.168Z,3.43
2018-08-31T22:03:42.725Z,3.83
2018-08-31T22:06:11.685Z,3.47
2018-08-31T22:08:40.133Z,4.00
2018-08-31T22:11:08.625Z,3.60
2018-08-31T22:13:37.165Z,3.40
2018-08-31T22:16:05.950Z,4.30
2018-08-31T22:18:34.504Z,4.43
2018-08-31T22:21:03.793Z,3.87
2018-08-31T22:23:32.320Z,4.50
2018-08-31T22:26:00.929Z,3.90
2018-08-31T22:28:29.450Z,4.20
2018-08-31T22:30:57.920Z,3.57
2018-08-31T22:33:26.529Z,3.90
2018-08-31T22:35:55.149Z,3.20
2018-08-31T22:38:23.769Z,3.73
2018-08-31T22:40:52.254Z,3.90
2018-08-31T22:43:25.093Z,4.30
2018-08-31T22:45:53.557Z,3.60
2018-08-31T22:48:22.105Z,4.00
2018-08-31T22:50:51.246Z,3.40
2018-08-31T22:53:19.653Z,3.63
2018-08-31T22:55:48.199Z,3.70
2018-08-31T22:58:16.773Z,3.83
2018-08-31T23:00:45.288Z,3.33
2018-08-31T23:03:13.817Z,3.10
2018-08-31T23:05:42.289Z,3.77
2018-08-31T23:08:10.795Z,4.07
2018-08-31T23:10:39.304Z,3.53
2018-08-31T23:13:07.824Z,3.47
2018-08-31T23:15:36.937Z,3.07
2018-08-31T23:18:05.733Z,2.80
2018-08-31T23:20:34.261Z,3.40
2018-08-31T23:23:08.084Z,3.40
2018-08-31T23:25:42.145Z,3.40
2018-08-31T23:28:10.726Z,3.83
2018-08-31T23:30:39.198Z,3.37
2018-08-31T23:33:07.917Z,3.57
2018-08-31T23:35:37.088Z,3.57
2018-08-31T23:38:05.670Z,3.30
2018-08-31T23:40:34.163Z,3.27
2018-08-31T23:43:03.334Z,3.50
2018-08-31T23:45:31.917Z,3.60
2018-08-31T23:48:00.437Z,3.47
2018-08-31T23:50:28.918Z,3.23
2018-08-31T23:52:57.402Z,3.13
2018-08-31T23:55:25.988Z,3.87
2018-08-31T23:57:54.428Z,3.37
